Time;durP1;ratioP1;P1;durP2;ratioP2;P2;SDS_P1;SDS_P2;PMS_P1;PMS_P2;Temp;Humidity;BMP_temperature;BMP_pressure;BME280_temperature;BME280_humidity;BME280_pressure;Samples;Min_cycle;Max_cycle;Signal;HPM_P1;HPM_P2
2022/07/04 00:01:00;;;;;;;1.20;0.50;;;20.50;77.30;;;;;;5052732;28;20060;-73
2022/07/04 00:03:25;;;;;;;1.30;0.70;;;20.50;77.40;;;;;;5052459;28;20497;-71
2022/07/04 00:05:51;;;;;;;2.75;0.80;;;20.40;78.00;;;;;;5052194;28;20459;-73
2022/07/04 00:08:17;;;;;;;3.10;0.70;;;20.30;78.50;;;;;;5052116;28;20032;-74
2022/07/04 00:10:42;;;;;;;1.42;0.77;;;20.20;78.80;;;;;;5052009;28;20040;-73
2022/07/04 00:13:08;;;;;;;1.00;0.60;;;20.30;78.90;;;;;;5052126;28;20096;-73
2022/07/04 00:15:34;;;;;;;0.50;0.47;;;20.40;78.90;;;;;;5052514;28;20051;-73
2022/07/04 00:17:59;;;;;;;4.85;0.60;;;20.30;78.80;;;;;;5052392;28;20029;-71
2022/07/04 00:20:25;;;;;;;1.75;0.70;;;20.30;79.30;;;;;;5052013;28;20052;-71
2022/07/04 00:22:51;;;;;;;1.42;0.40;;;20.30;79.10;;;;;;5051496;28;20029;-72
2022/07/04 00:25:17;;;;;;;2.08;0.70;;;20.20;79.80;;;;;;5050088;28;20025;-72
2022/07/04 00:27:42;;;;;;;3.65;0.55;;;20.20;79.70;;;;;;5052303;28;20021;-72
2022/07/04 00:30:09;;;;;;;1.40;0.70;;;20.20;80.00;;;;;;5051773;28;20040;-72
2022/07/04 00:32:34;;;;;;;1.58;0.75;;;20.10;79.50;;;;;;5050582;28;20048;-72
2022/07/04 00:35:00;;;;;;;2.53;0.70;;;20.20;79.80;;;;;;5050627;28;20447;-71
2022/07/04 00:37:26;;;;;;;3.05;0.93;;;20.10;80.30;;;;;;5051640;28;20037;-72
2022/07/04 00:39:51;;;;;;;1.15;0.68;;;20.00;81.20;;;;;;5052122;28;20021;-72
2022/07/04 00:42:17;;;;;;;1.35;0.70;;;20.00;82.10;;;;;;5051464;28;20389;-72
2022/07/04 00:44:43;;;;;;;2.63;0.85;;;20.00;81.50;;;;;;5050257;28;20458;-72
2022/07/04 00:47:08;;;;;;;1.63;0.77;;;19.90;82.20;;;;;;5051269;28;20033;-72
2022/07/04 00:49:35;;;;;;;4.05;0.90;;;19.80;82.60;;;;;;5051163;28;20033;-71
2022/07/04 00:52:01;;;;;;;2.17;0.80;;;19.90;82.90;;;;;;5051741;28;20021;-72
2022/07/04 00:54:30;;;;;;;0.75;0.35;;;19.90;83.00;;;;;;5051127;28;20107;-70
2022/07/04 00:56:57;;;;;;;2.80;0.70;;;19.90;83.00;;;;;;5051330;28;20052;-71
2022/07/04 00:59:23;;;;;;;0.77;0.60;;;19.90;83.30;;;;;;5049996;28;20392;-72
2022/07/04 01:01:50;;;;;;;0.50;0.43;;;19.90;83.40;;;;;;5051119;28;20531;-72
2022/07/04 01:04:17;;;;;;;2.42;0.90;;;19.90;83.80;;;;;;5051002;28;20025;-70
2022/07/04 01:06:43;;;;;;;1.15;0.80;;;19.80;83.90;;;;;;5051423;28;20024;-70
2022/07/04 01:09:08;;;;;;;2.13;0.90;;;19.80;84.10;;;;;;5050962;28;20029;-72
2022/07/04 01:11:34;;;;;;;1.33;0.70;;;19.80;84.30;;;;;;5050903;28;20485;-71
2022/07/04 01:14:00;;;;;;;1.10;0.70;;;19.80;84.60;;;;;;5050823;28;20071;-70
2022/07/04 01:16:27;;;;;;;3.50;0.98;;;19.80;84.20;;;;;;5050959;28;20118;-72
2022/07/04 01:18:54;;;;;;;1.38;0.70;;;19.70;84.60;;;;;;5050151;28;20025;-71
2022/07/04 01:21:21;;;;;;;1.65;0.77;;;19.70;84.90;;;;;;5050860;28;20036;-71
2022/07/04 01:23:47;;;;;;;1.45;0.77;;;19.70;84.90;;;;;;5051169;28;20033;-71
2022/07/04 01:26:12;;;;;;;1.85;0.80;;;19.60;85.30;;;;;;5050928;28;20025;-71
2022/07/04 01:28:39;;;;;;;1.48;0.80;;;19.60;85.00;;;;;;5050554;28;20029;-72
2022/07/04 01:31:05;;;;;;;0.95;0.57;;;19.50;86.40;;;;;;5050883;28;20025;-72
2022/07/04 01:33:31;;;;;;;1.45;0.75;;;19.50;86.50;;;;;;5050984;28;20037;-71
2022/07/04 01:35:57;;;;;;;1.55;0.82;;;19.60;86.40;;;;;;5048998;28;20029;-74
2022/07/04 01:38:23;;;;;;;1.48;0.60;;;19.60;86.10;;;;;;5049462;28;20581;-72
2022/07/04 01:40:49;;;;;;;0.75;0.70;;;19.50;87.30;;;;;;5049440;28;20041;-71
2022/07/04 01:43:15;;;;;;;4.50;1.20;;;19.50;87.50;;;;;;5050516;28;20021;-72
2022/07/04 01:45:41;;;;;;;3.05;0.93;;;19.20;88.70;;;;;;5051193;28;20098;-73
2022/07/04 01:48:08;;;;;;;2.17;1.00;;;19.20;89.70;;;;;;5050291;28;20124;-73
2022/07/04 01:50:35;;;;;;;3.17;1.38;;;19.20;90.10;;;;;;5050531;28;20041;-74
2022/07/04 01:53:00;;;;;;;2.13;1.27;;;19.20;90.10;;;;;;5050251;28;20056;-72
2022/07/04 01:55:27;;;;;;;1.90;1.10;;;19.20;90.10;;;;;;5050387;28;20094;-73
2022/07/04 01:57:53;;;;;;;1.30;0.98;;;19.10;90.30;;;;;;5049617;28;20021;-73
2022/07/04 02:03:08;;;;;;;2.03;1.10;;;19.10;90.20;;;;;;5050261;28;20040;-74
2022/07/04 02:05:34;;;;;;;1.25;1.10;;;19.10;90.60;;;;;;5050280;28;20041;-73
2022/07/04 02:08:00;;;;;;;4.47;1.27;;;19.00;91.10;;;;;;5050245;28;20037;-73
2022/07/04 02:10:26;;;;;;;6.95;1.08;;;18.90;91.50;;;;;;5050286;28;20529;-73
2022/07/04 02:13:01;;;;;;;3.13;1.20;;;19.00;91.50;;;;;;5050704;28;20341;-73
2022/07/04 02:15:31;;;;;;;2.28;1.35;;;19.00;91.30;;;;;;5050348;28;20040;-72
2022/07/04 02:17:57;;;;;;;5.38;1.15;;;19.00;91.50;;;;;;5050170;28;20367;-73
2022/07/04 02:20:24;;;;;;;3.78;1.30;;;19.00;91.70;;;;;;5050158;28;20033;-73
2022/07/04 02:22:49;;;;;;;4.28;1.65;;;18.90;91.80;;;;;;5050231;28;20415;-73
2022/07/04 02:25:15;;;;;;;2.85;1.40;;;19.00;91.80;;;;;;5049008;28;20074;-72
2022/07/04 02:27:41;;;;;;;4.15;1.60;;;18.90;91.80;;;;;;5050684;28;20431;-73
2022/07/04 02:30:08;;;;;;;2.47;1.50;;;18.80;92.20;;;;;;5049003;28;20372;-73
2022/07/04 02:32:35;;;;;;;2.30;1.42;;;18.80;92.20;;;;;;5050007;28;20076;-72
2022/07/04 02:35:01;;;;;;;3.53;1.80;;;18.80;92.30;;;;;;5049029;28;20126;-72
2022/07/04 02:37:27;;;;;;;4.47;1.95;;;18.80;92.40;;;;;;5049890;28;20036;-73
2022/07/04 02:39:53;;;;;;;5.03;1.98;;;18.80;92.70;;;;;;5050199;28;20021;-72
2022/07/04 02:42:19;;;;;;;4.53;1.80;;;18.70;93.00;;;;;;5049023;28;20462;-72
2022/07/04 02:44:45;;;;;;;2.40;1.60;;;18.70;93.10;;;;;;5049983;28;20262;-73
2022/07/04 02:47:11;;;;;;;3.60;1.77;;;18.70;93.20;;;;;;5051215;28;20033;-73
2022/07/04 02:49:36;;;;;;;5.65;2.13;;;18.50;93.50;;;;;;5053715;28;20025;-72
2022/07/04 02:52:03;;;;;;;3.22;2.10;;;18.40;93.80;;;;;;5053955;28;20025;-73
2022/07/04 02:54:28;;;;;;;2.50;1.33;;;18.50;93.70;;;;;;5053478;28;20053;-72
2022/07/04 02:56:54;;;;;;;7.88;2.17;;;18.60;93.50;;;;;;5053706;28;20425;-73
2022/07/04 02:59:20;;;;;;;3.20;1.45;;;18.60;93.40;;;;;;5053514;28;20570;-72
2022/07/04 03:01:46;;;;;;;4.75;1.45;;;18.60;93.10;;;;;;5053491;28;20466;-72
2022/07/04 03:04:11;;;;;;;3.47;1.60;;;18.60;93.20;;;;;;5053443;28;20021;-72
2022/07/04 03:06:39;;;;;;;3.17;1.50;;;18.60;92.90;;;;;;5053761;28;20044;-73
2022/07/04 03:09:05;;;;;;;3.88;2.05;;;18.60;93.30;;;;;;5053409;28;20028;-72
2022/07/04 03:11:31;;;;;;;3.78;2.30;;;18.60;93.30;;;;;;5053369;28;20329;-73
2022/07/04 03:13:57;;;;;;;3.22;2.20;;;18.60;93.50;;;;;;5053217;28;20090;-73
2022/07/04 03:16:22;;;;;;;4.78;1.85;;;18.60;93.70;;;;;;5053152;28;20040;-72
2022/07/04 03:18:48;;;;;;;1.90;1.70;;;18.60;93.50;;;;;;5053463;28;20040;-73
2022/07/04 03:21:14;;;;;;;3.10;2.08;;;18.60;93.60;;;;;;5053030;28;20044;-73
2022/07/04 03:23:40;;;;;;;7.38;2.17;;;18.70;93.50;;;;;;5053091;28;20059;-73
2022/07/04 03:26:05;;;;;;;3.13;1.80;;;18.60;94.20;;;;;;5051710;28;20029;-72
2022/07/04 03:28:31;;;;;;;3.67;1.60;;;18.70;93.60;;;;;;5052963;28;20040;-72
2022/07/04 03:30:58;;;;;;;4.40;1.92;;;18.50;94.00;;;;;;5053209;28;20017;-73
2022/07/04 03:33:23;;;;;;;3.95;1.90;;;18.40;94.20;;;;;;5051766;28;20090;-72
2022/07/04 03:35:49;;;;;;;6.15;2.03;;;18.50;94.40;;;;;;5051821;28;20414;-72
2022/07/04 03:38:15;;;;;;;4.18;2.00;;;18.40;94.40;;;;;;5051740;28;20036;-72
2022/07/04 03:40:40;;;;;;;5.70;1.58;;;18.40;94.60;;;;;;5053053;28;20086;-73
2022/07/04 03:43:06;;;;;;;5.90;2.05;;;18.30;94.60;;;;;;5052847;28;20436;-73
2022/07/04 03:45:32;;;;;;;5.05;2.40;;;18.40;94.60;;;;;;5053114;28;20474;-73
2022/07/04 03:47:58;;;;;;;4.55;2.53;;;18.40;94.60;;;;;;5052413;28;20036;-73
2022/07/04 03:50:24;;;;;;;4.75;2.65;;;18.30;94.80;;;;;;5052626;28;20037;-72
2022/07/04 03:52:50;;;;;;;6.65;2.60;;;18.40;94.80;;;;;;5052492;28;20048;-73
2022/07/04 03:55:15;;;;;;;5.93;2.03;;;18.40;94.80;;;;;;5051147;28;20025;-74
2022/07/04 03:57:41;;;;;;;3.92;2.38;;;18.40;94.70;;;;;;5051708;28;20029;-73
2022/07/04 04:00:09;;;;;;;3.42;2.10;;;18.30;95.00;;;;;;5051380;28;20052;-73
2022/07/04 04:02:35;;;;;;;10.18;2.40;;;18.40;94.70;;;;;;5052262;28;20111;-73
2022/07/04 04:07:45;;;;;;;5.07;2.90;;;18.30;95.00;;;;;;5051776;28;20125;-73
2022/07/04 04:10:11;;;;;;;5.93;2.67;;;18.40;95.00;;;;;;5052106;28;20092;-73
2022/07/04 04:12:36;;;;;;;8.40;2.30;;;18.40;95.10;;;;;;5052672;28;20446;-72
2022/07/04 04:15:02;;;;;;;4.10;2.45;;;18.30;95.10;;;;;;5052107;28;20129;-72
2022/07/04 04:17:28;;;;;;;6.13;2.55;;;18.40;95.20;;;;;;5052039;28;20037;-72
2022/07/04 04:19:54;;;;;;;3.92;2.25;;;18.40;95.00;;;;;;5051944;28;20076;-73
2022/07/04 04:22:19;;;;;;;4.45;3.30;;;18.40;95.30;;;;;;5051880;28;20465;-73
2022/07/04 04:24:45;;;;;;;5.53;2.97;;;18.30;95.50;;;;;;5052231;28;20024;-73
2022/07/04 04:27:11;;;;;;;7.28;3.38;;;18.30;95.70;;;;;;5051677;28;20029;-72
2022/07/04 04:29:36;;;;;;;3.58;3.10;;;18.30;95.90;;;;;;5051778;28;20041;-72
2022/07/04 04:32:02;;;;;;;8.65;3.13;;;18.10;96.30;;;;;;5051720;28;20091;-72
2022/07/04 04:34:28;;;;;;;8.02;2.92;;;18.20;96.30;;;;;;5050768;28;20214;-72
2022/07/04 04:36:53;;;;;;;4.78;2.90;;;18.20;96.30;;;;;;5052044;28;20025;-73
2022/07/04 04:39:19;;;;;;;5.07;3.20;;;18.30;96.30;;;;;;5051602;28;20398;-72
2022/07/04 04:41:45;;;;;;;4.60;3.22;;;18.40;96.00;;;;;;5051700;28;20036;-73
2022/07/04 04:44:10;;;;;;;7.18;3.47;;;18.40;96.10;;;;;;5051537;28;20056;-73
2022/07/04 04:46:36;;;;;;;9.52;4.15;;;18.50;96.10;;;;;;5051430;28;20309;-73
2022/07/04 04:49:02;;;;;;;8.13;3.35;;;18.40;96.30;;;;;;5051866;28;20095;-74
2022/07/04 04:51:27;;;;;;;10.50;3.63;;;18.40;96.30;;;;;;5051443;28;20029;-73
2022/07/04 04:53:53;;;;;;;9.85;3.80;;;18.50;96.30;;;;;;5051066;28;20092;-73
2022/07/04 04:56:19;;;;;;;29.80;8.65;;;18.60;96.10;;;;;;5050026;28;20032;-72
2022/07/04 04:58:44;;;;;;;7.53;3.42;;;18.70;96.30;;;;;;5050912;28;20463;-73
2022/07/04 05:01:10;;;;;;;6.63;3.60;;;18.90;96.10;;;;;;5050889;28;20024;-72
2022/07/04 05:03:35;;;;;;;7.00;2.97;;;18.80;96.10;;;;;;5051623;28;20058;-72
2022/07/04 05:06:01;;;;;;;4.25;2.97;;;18.80;96.30;;;;;;5050758;28;20029;-73
2022/07/04 05:08:27;;;;;;;13.13;4.00;;;18.90;96.20;;;;;;5050890;28;20037;-73
2022/07/04 05:10:53;;;;;;;6.47;3.13;;;18.90;96.20;;;;;;5049377;28;20357;-73
2022/07/04 05:13:19;;;;;;;8.52;3.88;;;19.00;96.00;;;;;;5051245;28;20028;-73
2022/07/04 05:15:46;;;;;;;8.82;3.58;;;19.10;96.00;;;;;;5051376;28;20021;-72
2022/07/04 05:18:13;;;;;;;9.93;3.92;;;19.10;95.90;;;;;;5050819;28;20037;-72
2022/07/04 05:20:39;;;;;;;7.68;3.30;;;19.20;96.20;;;;;;5049631;28;20083;-73
2022/07/04 05:23:05;;;;;;;9.93;3.38;;;19.10;96.00;;;;;;5050815;28;20037;-72
2022/07/04 05:25:32;;;;;;;9.32;3.17;;;19.20;95.90;;;;;;5050954;28;20186;-72
2022/07/04 05:27:58;;;;;;;9.38;3.10;;;19.30;95.70;;;;;;5051412;28;20017;-73
2022/07/04 05:30:24;;;;;;;7.57;3.35;;;19.20;95.80;;;;;;5050592;28;20102;-72
2022/07/04 05:32:51;;;;;;;8.75;3.40;;;19.20;95.70;;;;;;5050743;28;20359;-73
2022/07/04 05:35:16;;;;;;;12.48;3.28;;;19.30;95.60;;;;;;5049429;28;20040;-73
2022/07/04 05:37:43;;;;;;;10.27;3.90;;;19.40;95.50;;;;;;5050428;28;20033;-72
2022/07/04 05:40:10;;;;;;;5.93;3.38;;;19.30;95.70;;;;;;5049237;28;20039;-74
2022/07/04 05:42:36;;;;;;;8.67;3.37;;;19.20;95.60;;;;;;5049712;28;20135;-74
2022/07/04 05:45:03;;;;;;;6.93;3.15;;;19.30;95.60;;;;;;5048941;28;20033;-70
2022/07/04 05:47:28;;;;;;;11.00;3.60;;;19.20;95.80;;;;;;5050220;28;20116;-69
2022/07/04 05:49:54;;;;;;;6.22;3.25;;;19.40;95.50;;;;;;5050450;28;20454;-70
2022/07/04 05:52:20;;;;;;;9.00;3.17;;;19.30;95.30;;;;;;5050352;28;20393;-70
2022/07/04 05:54:45;;;;;;;5.50;3.28;;;19.40;95.30;;;;;;5050805;28;20056;-70
2022/07/04 05:57:11;;;;;;;11.20;4.43;;;19.40;95.40;;;;;;5050127;28;20051;-69
2022/07/04 05:59:37;;;;;;;9.50;4.25;;;19.50;95.40;;;;;;5050278;28;20101;-74
2022/07/04 06:02:03;;;;;;;7.13;4.10;;;19.50;95.10;;;;;;5048960;28;20148;-73
2022/07/04 06:04:28;;;;;;;8.77;4.57;;;19.50;95.00;;;;;;5050144;28;20090;-73
2022/07/04 06:06:54;;;;;;;7.25;4.20;;;19.60;95.00;;;;;;5050552;28;20459;-72
2022/07/04 06:09:20;;;;;;;11.75;5.15;;;19.60;95.00;;;;;;5050106;28;20056;-74
2022/07/04 06:11:46;;;;;;;5.90;3.92;;;19.70;94.90;;;;;;5048869;28;20033;-71
2022/07/04 06:14:12;;;;;;;8.80;4.90;;;19.70;94.80;;;;;;5050013;28;20029;-73
2022/07/04 06:16:37;;;;;;;11.02;4.72;;;19.80;94.50;;;;;;5049982;28;20057;-73
2022/07/04 06:19:03;;;;;;;5.43;3.50;;;19.80;94.30;;;;;;5050268;28;20111;-71
2022/07/04 06:21:29;;;;;;;8.13;4.05;;;19.80;94.40;;;;;;5050752;28;20417;-70
2022/07/04 06:23:55;;;;;;;10.25;4.53;;;19.90;94.30;;;;;;5054267;28;20116;-70
2022/07/04 06:26:20;;;;;;;8.00;3.45;;;20.00;94.00;;;;;;5054083;28;20025;-73
2022/07/04 06:28:46;;;;;;;6.38;3.63;;;20.00;93.80;;;;;;5053924;28;20094;-71
2022/07/04 06:31:12;;;;;;;14.55;3.75;;;20.10;93.70;;;;;;5053683;28;20067;-74
2022/07/04 06:36:22;;;;;;;8.73;3.22;;;20.20;93.50;;;;;;5053834;28;20032;-71
2022/07/04 06:38:48;;;;;;;6.32;2.20;;;20.30;92.70;;;;;;5053659;28;20483;-73
2022/07/04 06:41:14;;;;;;;7.25;2.38;;;20.10;92.70;;;;;;5053678;28;20044;-71
2022/07/04 06:43:39;;;;;;;6.75;2.53;;;20.10;92.60;;;;;;5054000;28;20095;-71
2022/07/04 06:46:05;;;;;;;7.55;2.17;;;20.20;92.60;;;;;;5053959;28;20024;-72
2022/07/04 06:48:31;;;;;;;5.13;2.20;;;20.20;92.60;;;;;;5043295;28;20094;-73
2022/07/04 06:50:57;;;;;;;5.38;2.40;;;20.20;92.30;;;;;;5053633;28;20029;-71
2022/07/04 06:53:23;;;;;;;4.03;2.08;;;20.20;92.10;;;;;;5053358;28;20132;-71
2022/07/04 06:55:48;;;;;;;5.40;2.25;;;20.30;92.10;;;;;;5053437;28;20091;-70
2022/07/04 06:58:14;;;;;;;5.55;2.35;;;20.30;92.00;;;;;;5053255;28;20047;-71
2022/07/04 07:00:41;;;;;;;8.15;2.47;;;20.30;91.60;;;;;;5053655;28;20043;-70
2022/07/04 07:03:07;;;;;;;8.35;2.72;;;20.30;91.20;;;;;;5053372;28;20035;-70
2022/07/04 07:05:36;;;;;;;5.95;1.85;;;20.40;91.10;;;;;;5053479;28;20025;-71
2022/07/04 07:08:05;;;;;;;7.40;2.13;;;20.30;90.40;;;;;;5053264;28;20033;-70
2022/07/04 07:10:32;;;;;;;6.38;2.30;;;20.10;90.70;;;;;;5053662;28;20425;-70
2022/07/04 07:12:58;;;;;;;6.70;1.85;;;20.10;90.40;;;;;;5053608;28;20021;-71
2022/07/04 07:15:24;;;;;;;6.15;1.73;;;20.20;90.40;;;;;;5053078;28;20110;-71
2022/07/04 07:17:50;;;;;;;4.40;2.10;;;20.30;90.60;;;;;;5051700;28;20459;-71
2022/07/04 07:20:16;;;;;;;8.38;1.83;;;20.50;90.50;;;;;;5051714;28;20029;-72
2022/07/04 07:22:42;;;;;;;3.85;1.63;;;20.80;90.40;;;;;;5052977;28;20025;-71
2022/07/04 07:25:10;;;;;;;5.38;2.35;;;20.90;90.00;;;;;;5051659;28;20639;-71
2022/07/04 07:27:36;;;;;;;3.20;1.98;;;20.70;90.00;;;;;;5052137;28;20481;-70
2022/07/04 07:30:03;;;;;;;5.15;2.25;;;20.60;90.00;;;;;;5052878;28;20076;-70
2022/07/04 07:32:29;;;;;;;7.38;2.10;;;20.60;90.00;;;;;;5052065;28;20171;-70
2022/07/04 07:34:54;;;;;;;2.85;1.80;;;20.60;90.20;;;;;;5052727;28;20061;-72
2022/07/04 07:37:21;;;;;;;4.28;1.67;;;20.50;90.10;;;;;;5052643;28;20497;-71
2022/07/04 07:39:49;;;;;;;3.17;1.83;;;20.70;89.90;;;;;;5052774;28;20340;-72
2022/07/04 07:42:15;;;;;;;6.22;1.55;;;20.80;89.30;;;;;;5051627;28;20254;-71
2022/07/04 07:44:41;;;;;;;6.30;1.63;;;20.70;88.30;;;;;;5052512;28;20029;-71
2022/07/04 07:47:07;;;;;;;8.57;2.25;;;21.00;87.80;;;;;;5052314;28;20467;-70
2022/07/04 07:49:33;;;;;;;4.07;1.80;;;21.00;87.90;;;;;;5052659;28;20430;-71
2022/07/04 07:51:58;;;;;;;4.25;2.03;;;21.10;88.00;;;;;;5052846;28;20498;-71
2022/07/04 07:54:24;;;;;;;7.32;2.05;;;21.10;87.80;;;;;;5051251;28;20059;-71
2022/07/04 07:56:50;;;;;;;5.60;1.90;;;21.10;87.90;;;;;;5052103;28;20259;-72
2022/07/04 07:59:16;;;;;;;4.25;1.70;;;21.20;87.60;;;;;;5051955;28;20049;-71
2022/07/04 08:01:42;;;;;;;5.72;1.30;;;21.40;86.70;;;;;;5052052;28;20092;-71
2022/07/04 08:06:52;;;;;;;4.60;1.27;;;21.40;83.50;;;;;;5052391;28;20513;-70
2022/07/04 08:09:18;;;;;;;5.65;1.00;;;21.50;81.60;;;;;;5052074;28;20037;-72
2022/07/04 08:11:44;;;;;;;6.20;1.50;;;21.70;81.40;;;;;;5052141;28;20053;-71
2022/07/04 08:14:10;;;;;;;3.22;1.05;;;21.70;80.30;;;;;;5050696;28;20444;-71
2022/07/04 08:16:36;;;;;;;3.20;1.05;;;21.90;79.30;;;;;;5051918;28;20451;-71
2022/07/04 08:19:03;;;;;;;5.47;1.52;;;22.40;78.00;;;;;;5052231;28;20103;-70
2022/07/04 08:21:29;;;;;;;4.55;1.20;;;23.30;77.60;;;;;;5052065;28;20057;-70
2022/07/04 08:23:54;;;;;;;6.25;0.88;;;24.00;75.60;;;;;;5051599;28;20118;-70
2022/07/04 08:26:20;;;;;;;2.47;0.50;;;24.70;73.10;;;;;;5050625;28;20033;-71
2022/07/04 08:28:46;;;;;;;5.38;0.90;;;25.40;69.70;;;;;;5051702;28;20044;-70
2022/07/04 08:31:12;;;;;;;1.63;0.80;;;25.20;68.20;;;;;;5051743;28;20100;-70
2022/07/04 08:33:37;;;;;;;2.22;0.85;;;25.60;67.10;;;;;;5052166;28;20025;-71
2022/07/04 08:36:06;;;;;;;4.70;1.08;;;26.40;65.50;;;;;;5051941;28;20063;-71
2022/07/04 08:38:31;;;;;;;2.92;0.77;;;27.20;63.80;;;;;;5051327;28;20530;-69
2022/07/04 08:40:59;;;;;;;2.92;0.80;;;26.60;62.60;;;;;;5051462;28;20037;-71
2022/07/04 08:43:26;;;;;;;5.95;1.17;;;26.80;61.20;;;;;;5051585;28;20377;-72
2022/07/04 08:45:54;;;;;;;3.13;0.93;;;27.80;60.40;;;;;;5049727;28;20086;-72
2022/07/04 08:48:24;;;;;;;2.60;0.73;;;28.30;59.80;;;;;;5051258;28;20115;-71
2022/07/04 08:50:55;;;;;;;3.45;1.00;;;28.40;58.50;;;;;;5051223;28;20398;-71
2022/07/04 08:53:22;;;;;;;3.25;0.82;;;28.10;57.10;;;;;;5050210;28;20152;-71
2022/07/04 08:58:33;;;;;;;2.13;0.60;;;29.30;55.70;;;;;;5051179;28;20056;-73
2022/07/04 09:01:19;;;;;;;3.05;0.98;;;29.40;54.20;;;;;;5051896;28;20403;-73
2022/07/04 09:03:45;;;;;;;3.58;0.77;;;29.30;54.00;;;;;;5050720;28;20119;-71
2022/07/04 09:06:12;;;;;;;1.73;0.73;;;29.60;53.80;;;;;;5051119;28;20029;-66
2022/07/04 09:08:39;;;;;;;2.33;0.80;;;30.20;54.70;;;;;;5051138;28;20340;-71
2022/07/04 09:11:05;;;;;;;2.40;0.70;;;29.90;52.60;;;;;;5051187;28;20047;-71
2022/07/04 09:13:32;;;;;;;1.17;0.52;;;30.00;53.10;;;;;;5050996;28;20090;-70
2022/07/04 09:15:58;;;;;;;2.58;0.68;;;29.20;52.40;;;;;;5050234;28;20059;-72
2022/07/04 09:18:29;;;;;;;4.88;1.10;;;28.30;53.30;;;;;;5051119;28;20040;-73
2022/07/04 09:20:58;;;;;;;3.45;1.10;;;27.80;53.70;;;;;;5050775;28;20041;-72
2022/07/04 09:23:27;;;;;;;1.63;0.70;;;27.90;53.40;;;;;;5049508;28;20414;-71
2022/07/04 09:26:13;;;;;;;3.60;0.50;;;28.00;53.00;;;;;;5050706;28;20112;-73
2022/07/04 09:28:44;;;;;;;1.42;0.40;;;28.30;52.80;;;;;;5050615;28;20033;-73
2022/07/04 09:31:21;;;;;;;1.63;0.77;;;26.80;53.20;;;;;;5050611;28;20075;-72
2022/07/04 09:34:00;;;;;;;1.63;0.80;;;26.90;54.20;;;;;;5050936;28;20021;-72
2022/07/04 09:36:27;;;;;;;1.58;0.55;;;26.90;55.30;;;;;;5049244;28;20082;-72
2022/07/04 09:39:14;;;;;;;3.05;0.80;;;27.10;54.90;;;;;;5050516;28;20037;-73
2022/07/04 09:42:00;;;;;;;2.95;0.65;;;26.70;55.50;;;;;;5050670;28;20041;-71
2022/07/04 09:44:28;;;;;;;1.60;0.70;;;26.10;55.80;;;;;;5050190;28;20493;-72
2022/07/04 09:46:56;;;;;;;1.40;0.52;;;26.00;55.80;;;;;;5050311;28;20538;-70
2022/07/04 09:49:23;;;;;;;4.05;0.75;;;26.20;55.90;;;;;;5050164;28;20028;-72
2022/07/04 09:51:51;;;;;;;3.85;0.68;;;26.50;55.70;;;;;;5049967;28;20355;-72
2022/07/04 09:54:26;;;;;;;6.55;1.05;;;26.40;55.50;;;;;;5050256;28;20045;-72
2022/07/04 09:56:57;;;;;;;2.88;0.90;;;26.60;55.80;;;;;;5050063;28;20033;-70
2022/07/04 09:59:24;;;;;;;5.13;1.95;;;26.30;55.90;;;;;;5050092;28;20045;-72
2022/07/04 10:01:50;;;;;;;3.13;0.85;;;26.10;56.10;;;;;;5050044;28;20056;-72
2022/07/04 10:04:16;;;;;;;3.40;0.63;;;26.30;55.60;;;;;;5049830;28;20162;-72
2022/07/04 10:06:43;;;;;;;0.47;0.45;;;26.30;55.90;;;;;;5050167;28;20104;-72
2022/07/04 10:09:14;;;;;;;5.30;1.00;;;26.30;55.70;;;;;;5049964;28;20025;-71
2022/07/04 10:11:42;;;;;;;3.78;0.75;;;26.20;54.90;;;;;;5050269;28;20091;-72
2022/07/04 10:14:10;;;;;;;2.17;0.85;;;26.10;55.60;;;;;;5050199;28;20029;-74
2022/07/04 10:16:38;;;;;;;6.45;1.20;;;26.10;56.10;;;;;;5049920;28;20033;-74
2022/07/04 10:19:04;;;;;;;;;;;26.10;55.80;;;;;;5050968;28;20029;-72
2022/07/04 10:21:30;;;;;;;2.15;0.68;;;25.90;55.40;;;;;;5050188;28;19994;-71
2022/07/04 10:23:56;;;;;;;6.20;0.60;;;25.50;54.80;;;;;;5048925;28;20033;-72
2022/07/04 10:26:25;;;;;;;2.03;0.63;;;25.60;55.50;;;;;;5050032;28;20025;-73
2022/07/04 10:28:52;;;;;;;5.63;1.00;;;25.90;55.50;;;;;;5049801;28;20100;-71
2022/07/04 10:31:20;;;;;;;3.50;0.55;;;25.80;55.30;;;;;;5049804;28;20033;-74
2022/07/04 10:33:46;;;;;;;1.67;0.70;;;25.90;55.40;;;;;;5049172;28;20021;-72
2022/07/04 10:36:23;;;;;;;3.30;0.80;;;25.60;55.10;;;;;;5049797;28;20108;-71
2022/07/04 10:38:52;;;;;;;1.25;0.50;;;25.70;55.30;;;;;;5049608;28;20033;-70
2022/07/04 10:41:21;;;;;;;1.67;0.50;;;25.70;55.60;;;;;;5049598;28;20064;-71
2022/07/04 10:43:56;;;;;;;0.40;0.40;;;25.80;55.90;;;;;;5048629;28;20081;-70
2022/07/04 10:46:24;;;;;;;1.52;0.60;;;25.70;55.40;;;;;;5049582;28;20021;-71
2022/07/04 10:48:54;;;;;;;1.00;0.68;;;25.60;56.30;;;;;;5050561;28;20036;-72
2022/07/04 10:51:37;;;;;;;2.17;0.63;;;25.60;55.00;;;;;;5049552;28;20040;-72
2022/07/04 10:54:13;;;;;;;4.78;0.82;;;25.90;54.40;;;;;;5049523;28;20072;-71
2022/07/04 10:56:51;;;;;;;1.02;0.52;;;26.00;54.60;;;;;;5049381;28;20037;-71
2022/07/04 10:59:29;;;;;;;2.63;0.70;;;25.90;54.30;;;;;;5048228;28;20059;-70
2022/07/04 11:02:07;;;;;;;1.30;0.60;;;25.60;55.40;;;;;;5049472;28;20471;-69
2022/07/04 11:04:55;;;;;;;3.40;0.60;;;25.90;55.00;;;;;;5048226;28;20033;-69
2022/07/04 11:07:22;;;;;;;2.17;0.50;;;26.00;54.60;;;;;;5049509;28;20032;-71
2022/07/04 11:10:10;;;;;;;4.63;0.90;;;26.00;55.00;;;;;;5053384;28;20036;-70
2022/07/04 11:12:54;;;;;;;2.55;0.70;;;26.20;54.30;;;;;;5053015;28;20107;-71
2022/07/04 11:15:31;;;;;;;1.10;0.50;;;25.90;54.60;;;;;;5051919;28;20112;-71
2022/07/04 11:18:03;;;;;;;0.80;0.50;;;26.00;55.00;;;;;;5052889;28;20359;-71
2022/07/04 11:20:32;;;;;;;1.83;0.73;;;25.90;54.90;;;;;;5052995;28;20086;-70
2022/07/04 11:23:07;;;;;;;1.33;0.50;;;25.80;54.50;;;;;;5053334;28;20029;-70
2022/07/04 11:25:33;;;;;;;4.90;0.73;;;25.90;54.40;;;;;;5052419;28;20524;-71
2022/07/04 11:28:17;;;;;;;3.80;0.73;;;25.80;54.20;;;;;;5052115;28;20025;-70
2022/07/04 11:30:53;;;;;;;4.07;1.08;;;26.00;54.40;;;;;;5052627;28;20036;-71
2022/07/04 11:33:22;;;;;;;1.77;0.60;;;26.10;54.80;;;;;;5051786;28;20470;-71
2022/07/04 11:36:04;;;;;;;2.92;0.60;;;26.20;54.80;;;;;;5053025;28;20421;-69
2022/07/04 11:38:53;;;;;;;4.72;0.70;;;26.20;54.80;;;;;;5052655;28;20029;-70
2022/07/04 11:47:14;;;;;;;5.72;1.65;;;26.00;55.10;;;;;;5052635;28;20267;-70
2022/07/04 11:49:54;;;;;;;5.75;1.00;;;26.10;54.80;;;;;;5052749;28;20108;-71
2022/07/04 11:52:41;;;;;;;3.08;0.55;;;26.30;55.00;;;;;;5052264;28;20031;-72
2022/07/04 11:55:11;;;;;;;2.13;0.82;;;26.20;54.10;;;;;;5052328;28;20048;-71
2022/07/04 11:57:38;;;;;;;2.05;0.75;;;26.30;54.70;;;;;;5052879;28;20017;-70
2022/07/04 12:00:05;;;;;;;2.40;1.40;;;26.00;54.30;;;;;;5051076;28;20037;-71
2022/07/04 12:02:32;;;;;;;1.05;0.40;;;25.90;54.30;;;;;;5052566;28;20025;-71
2022/07/04 12:04:59;;;;;;;0.40;0.40;;;26.00;54.40;;;;;;5052513;28;20029;-72
2022/07/04 12:07:26;;;;;;;1.15;0.40;;;26.00;54.30;;;;;;5052191;28;20423;-70
2022/07/04 12:09:53;;;;;;;2.08;0.68;;;26.20;54.30;;;;;;5052586;28;20043;-72
2022/07/04 12:12:23;;;;;;;3.03;0.43;;;26.30;54.10;;;;;;5051165;28;20423;-72
2022/07/04 12:14:58;;;;;;;2.25;0.50;;;26.40;54.20;;;;;;5052035;28;20037;-70
2022/07/04 12:17:30;;;;;;;1.38;0.50;;;26.20;53.70;;;;;;5051745;28;20040;-73
2022/07/04 12:20:00;;;;;;;2.35;0.50;;;26.20;54.00;;;;;;5051669;28;20037;-71
2022/07/04 12:22:37;;;;;;;0.60;0.60;;;26.20;54.00;;;;;;5051945;28;20102;-71
2022/07/04 12:25:05;;;;;;;3.45;0.50;;;26.00;53.80;;;;;;5052568;28;20025;-70
2022/07/04 12:27:31;;;;;;;1.45;0.60;;;26.20;53.70;;;;;;5051734;28;20028;-70
2022/07/04 12:29:59;;;;;;;2.10;0.50;;;26.20;53.10;;;;;;5050742;28;20086;-70
2022/07/04 12:32:44;;;;;;;8.68;0.60;;;26.30;53.20;;;;;;5051558;28;20542;-71
2022/07/04 12:35:09;;;;;;;2.15;0.50;;;26.10;53.30;;;;;;5051404;28;20094;-70
2022/07/04 12:37:35;;;;;;;2.42;0.73;;;25.90;54.00;;;;;;5051710;28;20120;-72
2022/07/04 12:40:10;;;;;;;2.25;0.90;;;25.70;54.30;;;;;;5052034;28;20025;-71
2022/07/04 12:42:38;;;;;;;1.77;0.57;;;25.80;54.80;;;;;;5051345;28;20124;-72
2022/07/04 12:45:07;;;;;;;1.33;0.70;;;26.10;54.70;;;;;;5051265;28;20490;-71
2022/07/04 12:47:33;;;;;;;4.50;0.70;;;26.30;54.60;;;;;;5051355;28;20110;-72
2022/07/04 12:49:59;;;;;;;5.75;0.98;;;26.40;54.60;;;;;;5051159;28;20091;-71
2022/07/04 12:52:27;;;;;;;3.20;0.82;;;26.50;54.80;;;;;;5051157;28;20441;-74
2022/07/04 12:55:10;;;;;;;4.43;1.75;;;26.50;53.80;;;;;;5051880;28;20152;-73
2022/07/04 12:57:36;;;;;;;1.38;0.60;;;26.40;53.60;;;;;;5051456;28;20112;-72
2022/07/04 13:00:04;;;;;;;5.85;0.85;;;26.10;53.70;;;;;;5049958;28;20116;-72
2022/07/04 13:02:30;;;;;;;4.93;0.95;;;26.30;54.30;;;;;;5051038;28;20033;-72
2022/07/04 13:04:56;;;;;;;3.97;0.65;;;26.30;52.90;;;;;;5050811;28;20532;-74
2022/07/04 13:07:22;;;;;;;2.20;0.50;;;26.30;52.90;;;;;;5050951;28;20173;-71